<?xml version="1.0" encoding="UTF-8" standalone="no" ?>
<gpx xmlns="http://www.topografix.com/GPX/1/1" xmlns:xsi="http://www.w3.org/2001/XMLSchema-instance" xsi:schemaLocation="http://www.topografix.com/GPX/1/1 http://www.topografix.com/GPX/1/1/gpx.xsd" version="1.1" creator="VisuGPX - https://www.visugpx.com">
  <metadata>
    <name>Etape 2 Férel - Les Moûtiers</name>
    <desc><![CDATA[Randonnée vélo Rennes - Hendaye, empruntant la Vélodyssée à partir de Saint-Brevin-Les-Pins. ]]></desc>
  </metadata>
  <trk>
    <name><![CDATA[Sequence 33]]></name>
    <trkseg>
      <trkpt lat="47.08085" lon="-2.01986">
        <ele>23</ele>
        <time>2016-07-22T14:52:14Z</time>
      </trkpt>
      <trkpt lat="47.08086" lon="-2.01987">
        <ele>23</ele>
        <time>2016-07-22T14:52:19Z</time>
      </trkpt>
      <trkpt lat="47.08086" lon="-2.01988">
        <ele>23</ele>
        <time>2016-07-22T14:52:24Z</time>
      </trkpt>
      <trkpt lat="47.08085" lon="-2.01985">
        <ele>24</ele>
        <time>2016-07-22T14:52:29Z</time>
      </trkpt>
      <trkpt lat="47.08075" lon="-2.01965">
        <ele>26</ele>
        <time>2016-07-22T14:52:34Z</time>
      </trkpt>
      <trkpt lat="47.08062" lon="-2.01937">
        <ele>27</ele>
        <time>2016-07-22T14:52:40Z</time>
      </trkpt>
      <trkpt lat="47.08054" lon="-2.01917">
        <ele>29</ele>
        <time>2016-07-22T14:52:44Z</time>
      </trkpt>
      <trkpt lat="47.08046" lon="-2.01892">
        <ele>30</ele>
        <time>2016-07-22T14:52:49Z</time>
      </trkpt>
      <trkpt lat="47.08059" lon="-2.01874">
        <ele>28</ele>
        <time>2016-07-22T14:52:54Z</time>
      </trkpt>
      <trkpt lat="47.08078" lon="-2.01859">
        <ele>29</ele>
        <time>2016-07-22T14:52:59Z</time>
      </trkpt>
      <trkpt lat="47.08117" lon="-2.01818">
        <ele>26</ele>
        <time>2016-07-22T14:53:07Z</time>
      </trkpt>
      <trkpt lat="47.08125" lon="-2.01809">
        <ele>24</ele>
        <time>2016-07-22T14:53:09Z</time>
      </trkpt>
      <trkpt lat="47.08152" lon="-2.01775">
        <ele>28</ele>
        <time>2016-07-22T14:53:17Z</time>
      </trkpt>
      <trkpt lat="47.08174" lon="-2.01751">
        <ele>28</ele>
        <time>2016-07-22T14:53:22Z</time>
      </trkpt>
      <trkpt lat="47.08187" lon="-2.01732">
        <ele>27</ele>
        <time>2016-07-22T14:53:26Z</time>
      </trkpt>
      <trkpt lat="47.08204" lon="-2.01713">
        <ele>28</ele>
        <time>2016-07-22T14:53:31Z</time>
      </trkpt>
      <trkpt lat="47.08216" lon="-2.01698">
        <ele>30</ele>
        <time>2016-07-22T14:53:35Z</time>
      </trkpt>
      <trkpt lat="47.08242" lon="-2.0166">
        <ele>31</ele>
        <time>2016-07-22T14:53:44Z</time>
      </trkpt>
      <trkpt lat="47.08244" lon="-2.01657">
        <ele>31</ele>
        <time>2016-07-22T14:53:45Z</time>
      </trkpt>
      <trkpt lat="47.08263" lon="-2.01627">
        <ele>27</ele>
        <time>2016-07-22T14:53:51Z</time>
      </trkpt>
      <trkpt lat="47.08276" lon="-2.01605">
        <ele>29</ele>
        <time>2016-07-22T14:53:56Z</time>
      </trkpt>
      <trkpt lat="47.08287" lon="-2.01586">
        <ele>30</ele>
        <time>2016-07-22T14:54:00Z</time>
      </trkpt>
      <trkpt lat="47.08301" lon="-2.01545">
        <ele>31</ele>
        <time>2016-07-22T14:54:09Z</time>
      </trkpt>
      <trkpt lat="47.08302" lon="-2.01543">
        <ele>32</ele>
        <time>2016-07-22T14:54:10Z</time>
      </trkpt>
      <trkpt lat="47.08318" lon="-2.01533">
        <ele>30</ele>
        <time>2016-07-22T14:54:15Z</time>
      </trkpt>
      <trkpt lat="47.08342" lon="-2.01543">
        <ele>30</ele>
        <time>2016-07-22T14:54:20Z</time>
      </trkpt>
      <trkpt lat="47.0837" lon="-2.01558">
        <ele>30</ele>
        <time>2016-07-22T14:54:25Z</time>
      </trkpt>
      <trkpt lat="47.08404" lon="-2.01574">
        <ele>31</ele>
        <time>2016-07-22T14:54:31Z</time>
      </trkpt>
      <trkpt lat="47.08442" lon="-2.01597">
        <ele>29</ele>
        <time>2016-07-22T14:54:38Z</time>
      </trkpt>
      <trkpt lat="47.08467" lon="-2.01617">
        <ele>30</ele>
        <time>2016-07-22T14:54:43Z</time>
      </trkpt>
      <trkpt lat="47.08482" lon="-2.01632">
        <ele>27</ele>
        <time>2016-07-22T14:54:46Z</time>
      </trkpt>
      <trkpt lat="47.08515" lon="-2.01663">
        <ele>28</ele>
        <time>2016-07-22T14:54:54Z</time>
      </trkpt>
      <trkpt lat="47.0852" lon="-2.01666">
        <ele>28</ele>
        <time>2016-07-22T14:54:55Z</time>
      </trkpt>
      <trkpt lat="47.0854" lon="-2.01684">
        <ele>29</ele>
        <time>2016-07-22T14:55:00Z</time>
      </trkpt>
      <trkpt lat="47.08561" lon="-2.01699">
        <ele>32</ele>
        <time>2016-07-22T14:55:05Z</time>
      </trkpt>
      <trkpt lat="47.08578" lon="-2.01696">
        <ele>32</ele>
        <time>2016-07-22T14:55:10Z</time>
      </trkpt>
      <trkpt lat="47.08599" lon="-2.01676">
        <ele>31</ele>
        <time>2016-07-22T14:55:16Z</time>
      </trkpt>
      <trkpt lat="47.08615" lon="-2.01681">
        <ele>33</ele>
        <time>2016-07-22T14:55:20Z</time>
      </trkpt>
      <trkpt lat="47.08631" lon="-2.01704">
        <ele>33</ele>
        <time>2016-07-22T14:55:25Z</time>
      </trkpt>
      <trkpt lat="47.08647" lon="-2.01727">
        <ele>34</ele>
        <time>2016-07-22T14:55:30Z</time>
      </trkpt>
      <trkpt lat="47.08661" lon="-2.01747">
        <ele>35</ele>
        <time>2016-07-22T14:55:35Z</time>
      </trkpt>
      <trkpt lat="47.08678" lon="-2.01767">
        <ele>37</ele>
        <time>2016-07-22T14:55:40Z</time>
      </trkpt>
      <trkpt lat="47.08695" lon="-2.01788">
        <ele>38</ele>
        <time>2016-07-22T14:55:45Z</time>
      </trkpt>
      <trkpt lat="47.0871" lon="-2.01812">
        <ele>37</ele>
        <time>2016-07-22T14:55:50Z</time>
      </trkpt>
      <trkpt lat="47.08725" lon="-2.01832">
        <ele>39</ele>
        <time>2016-07-22T14:55:55Z</time>
      </trkpt>
      <trkpt lat="47.0874" lon="-2.01854">
        <ele>39</ele>
        <time>2016-07-22T14:56:00Z</time>
      </trkpt>
      <trkpt lat="47.08753" lon="-2.01876">
        <ele>38</ele>
        <time>2016-07-22T14:56:05Z</time>
      </trkpt>
      <trkpt lat="47.08765" lon="-2.01897">
        <ele>39</ele>
        <time>2016-07-22T14:56:10Z</time>
      </trkpt>
      <trkpt lat="47.08779" lon="-2.01918">
        <ele>40</ele>
        <time>2016-07-22T14:56:15Z</time>
      </trkpt>
      <trkpt lat="47.08793" lon="-2.01944">
        <ele>40</ele>
        <time>2016-07-22T14:56:20Z</time>
      </trkpt>
      <trkpt lat="47.08806" lon="-2.01973">
        <ele>40</ele>
        <time>2016-07-22T14:56:25Z</time>
      </trkpt>
      <trkpt lat="47.08819" lon="-2.02002">
        <ele>40</ele>
        <time>2016-07-22T14:56:30Z</time>
      </trkpt>
      <trkpt lat="47.08831" lon="-2.02031">
        <ele>39</ele>
        <time>2016-07-22T14:56:35Z</time>
      </trkpt>
      <trkpt lat="47.08844" lon="-2.0206">
        <ele>38</ele>
        <time>2016-07-22T14:56:40Z</time>
      </trkpt>
      <trkpt lat="47.08867" lon="-2.02116">
        <ele>37</ele>
        <time>2016-07-22T14:56:49Z</time>
      </trkpt>
      <trkpt lat="47.08879" lon="-2.02144">
        <ele>36</ele>
        <time>2016-07-22T14:56:54Z</time>
      </trkpt>
      <trkpt lat="47.0888" lon="-2.02149">
        <ele>36</ele>
        <time>2016-07-22T14:56:55Z</time>
      </trkpt>
      <trkpt lat="47.08893" lon="-2.02174">
        <ele>36</ele>
        <time>2016-07-22T14:57:03Z</time>
      </trkpt>
      <trkpt lat="47.08894" lon="-2.02175">
        <ele>37</ele>
        <time>2016-07-22T14:57:05Z</time>
      </trkpt>
      <trkpt lat="47.0889" lon="-2.02176">
        <ele>36</ele>
        <time>2016-07-22T14:57:10Z</time>
      </trkpt>
      <trkpt lat="47.0888" lon="-2.0215">
        <ele>37</ele>
        <time>2016-07-22T14:57:15Z</time>
      </trkpt>
      <trkpt lat="47.08866" lon="-2.0212">
        <ele>36</ele>
        <time>2016-07-22T14:57:20Z</time>
      </trkpt>
      <trkpt lat="47.08844" lon="-2.02067">
        <ele>38</ele>
        <time>2016-07-22T14:57:28Z</time>
      </trkpt>
      <trkpt lat="47.08838" lon="-2.02054">
        <ele>38</ele>
        <time>2016-07-22T14:57:30Z</time>
      </trkpt>
      <trkpt lat="47.08822" lon="-2.02021">
        <ele>39</ele>
        <time>2016-07-22T14:57:35Z</time>
      </trkpt>
      <trkpt lat="47.08806" lon="-2.01987">
        <ele>40</ele>
        <time>2016-07-22T14:57:40Z</time>
      </trkpt>
      <trkpt lat="47.08788" lon="-2.0195">
        <ele>41</ele>
        <time>2016-07-22T14:57:45Z</time>
      </trkpt>
      <trkpt lat="47.0877" lon="-2.01916">
        <ele>41</ele>
        <time>2016-07-22T14:57:50Z</time>
      </trkpt>
      <trkpt lat="47.08749" lon="-2.01886">
        <ele>44</ele>
        <time>2016-07-22T14:57:55Z</time>
      </trkpt>
      <trkpt lat="47.08727" lon="-2.01854">
        <ele>44</ele>
        <time>2016-07-22T14:58:00Z</time>
      </trkpt>
      <trkpt lat="47.08705" lon="-2.0182">
        <ele>43</ele>
        <time>2016-07-22T14:58:05Z</time>
      </trkpt>
      <trkpt lat="47.0867" lon="-2.01772">
        <ele>40</ele>
        <time>2016-07-22T14:58:13Z</time>
      </trkpt>
      <trkpt lat="47.08666" lon="-2.01765">
        <ele>39</ele>
        <time>2016-07-22T14:58:15Z</time>
      </trkpt>
      <trkpt lat="47.08653" lon="-2.01741">
        <ele>39</ele>
        <time>2016-07-22T14:58:20Z</time>
      </trkpt>
      <trkpt lat="47.08633" lon="-2.01711">
        <ele>36</ele>
        <time>2016-07-22T14:58:25Z</time>
      </trkpt>
      <trkpt lat="47.08614" lon="-2.01683">
        <ele>35</ele>
        <time>2016-07-22T14:58:30Z</time>
      </trkpt>
      <trkpt lat="47.0859" lon="-2.01675">
        <ele>32</ele>
        <time>2016-07-22T14:58:37Z</time>
      </trkpt>
      <trkpt lat="47.08579" lon="-2.01664">
        <ele>33</ele>
        <time>2016-07-22T14:58:40Z</time>
      </trkpt>
      <trkpt lat="47.08559" lon="-2.01642">
        <ele>34</ele>
        <time>2016-07-22T14:58:45Z</time>
      </trkpt>
      <trkpt lat="47.08539" lon="-2.01619">
        <ele>35</ele>
        <time>2016-07-22T14:58:50Z</time>
      </trkpt>
      <trkpt lat="47.08523" lon="-2.01597">
        <ele>36</ele>
        <time>2016-07-22T14:58:55Z</time>
      </trkpt>
      <trkpt lat="47.08488" lon="-2.01544">
        <ele>33</ele>
        <time>2016-07-22T14:59:04Z</time>
      </trkpt>
      <trkpt lat="47.08473" lon="-2.01519">
        <ele>33</ele>
        <time>2016-07-22T14:59:08Z</time>
      </trkpt>
      <trkpt lat="47.08465" lon="-2.01511">
        <ele>34</ele>
        <time>2016-07-22T14:59:10Z</time>
      </trkpt>
      <trkpt lat="47.08443" lon="-2.01478">
        <ele>36</ele>
        <time>2016-07-22T14:59:16Z</time>
      </trkpt>
      <trkpt lat="47.08426" lon="-2.01448">
        <ele>37</ele>
        <time>2016-07-22T14:59:21Z</time>
      </trkpt>
      <trkpt lat="47.08413" lon="-2.01424">
        <ele>39</ele>
        <time>2016-07-22T14:59:25Z</time>
      </trkpt>
      <trkpt lat="47.08395" lon="-2.01396">
        <ele>39</ele>
        <time>2016-07-22T14:59:30Z</time>
      </trkpt>
      <trkpt lat="47.0838" lon="-2.01368">
        <ele>39</ele>
        <time>2016-07-22T14:59:35Z</time>
      </trkpt>
      <trkpt lat="47.08361" lon="-2.01342">
        <ele>40</ele>
        <time>2016-07-22T14:59:40Z</time>
      </trkpt>
      <trkpt lat="47.08341" lon="-2.01317">
        <ele>42</ele>
        <time>2016-07-22T14:59:45Z</time>
      </trkpt>
      <trkpt lat="47.0832" lon="-2.01288">
        <ele>40</ele>
        <time>2016-07-22T14:59:50Z</time>
      </trkpt>
      <trkpt lat="47.08299" lon="-2.0126">
        <ele>40</ele>
        <time>2016-07-22T14:59:55Z</time>
      </trkpt>
      <trkpt lat="47.08279" lon="-2.01232">
        <ele>41</ele>
        <time>2016-07-22T15:00:00Z</time>
      </trkpt>
      <trkpt lat="47.08257" lon="-2.01205">
        <ele>40</ele>
        <time>2016-07-22T15:00:05Z</time>
      </trkpt>
      <trkpt lat="47.08235" lon="-2.01175">
        <ele>41</ele>
        <time>2016-07-22T15:00:10Z</time>
      </trkpt>
      <trkpt lat="47.0821" lon="-2.01121">
        <ele>38</ele>
        <time>2016-07-22T15:00:17Z</time>
      </trkpt>
      <trkpt lat="47.08202" lon="-2.01099">
        <ele>38</ele>
        <time>2016-07-22T15:00:20Z</time>
      </trkpt>
      <trkpt lat="47.08185" lon="-2.01064">
        <ele>38</ele>
        <time>2016-07-22T15:00:25Z</time>
      </trkpt>
      <trkpt lat="47.08164" lon="-2.01036">
        <ele>40</ele>
        <time>2016-07-22T15:00:30Z</time>
      </trkpt>
      <trkpt lat="47.08133" lon="-2.00986">
        <ele>40</ele>
        <time>2016-07-22T15:00:38Z</time>
      </trkpt>
      <trkpt lat="47.08112" lon="-2.00958">
        <ele>39</ele>
        <time>2016-07-22T15:00:43Z</time>
      </trkpt>
      <trkpt lat="47.08104" lon="-2.00945">
        <ele>40</ele>
        <time>2016-07-22T15:00:45Z</time>
      </trkpt>
      <trkpt lat="47.08074" lon="-2.00897">
        <ele>38</ele>
        <time>2016-07-22T15:00:52Z</time>
      </trkpt>
      <trkpt lat="47.08057" lon="-2.00865">
        <ele>37</ele>
        <time>2016-07-22T15:00:57Z</time>
      </trkpt>
      <trkpt lat="47.08048" lon="-2.00846">
        <ele>37</ele>
        <time>2016-07-22T15:01:00Z</time>
      </trkpt>
      <trkpt lat="47.08037" lon="-2.00815">
        <ele>37</ele>
        <time>2016-07-22T15:01:05Z</time>
      </trkpt>
      <trkpt lat="47.08025" lon="-2.00785">
        <ele>37</ele>
        <time>2016-07-22T15:01:10Z</time>
      </trkpt>
      <trkpt lat="47.08012" lon="-2.00752">
        <ele>36</ele>
        <time>2016-07-22T15:01:15Z</time>
      </trkpt>
      <trkpt lat="47.08" lon="-2.00721">
        <ele>37</ele>
        <time>2016-07-22T15:01:20Z</time>
      </trkpt>
      <trkpt lat="47.07985" lon="-2.00688">
        <ele>38</ele>
        <time>2016-07-22T15:01:25Z</time>
      </trkpt>
      <trkpt lat="47.0797" lon="-2.00653">
        <ele>38</ele>
        <time>2016-07-22T15:01:30Z</time>
      </trkpt>
      <trkpt lat="47.07956" lon="-2.00618">
        <ele>38</ele>
        <time>2016-07-22T15:01:35Z</time>
      </trkpt>
      <trkpt lat="47.07941" lon="-2.00583">
        <ele>40</ele>
        <time>2016-07-22T15:01:40Z</time>
      </trkpt>
      <trkpt lat="47.07927" lon="-2.00545">
        <ele>38</ele>
        <time>2016-07-22T15:01:45Z</time>
      </trkpt>
      <trkpt lat="47.07916" lon="-2.00508">
        <ele>38</ele>
        <time>2016-07-22T15:01:50Z</time>
      </trkpt>
      <trkpt lat="47.07903" lon="-2.00468">
        <ele>36</ele>
        <time>2016-07-22T15:01:55Z</time>
      </trkpt>
      <trkpt lat="47.07886" lon="-2.00401">
        <ele>36</ele>
        <time>2016-07-22T15:02:03Z</time>
      </trkpt>
      <trkpt lat="47.07882" lon="-2.00365">
        <ele>36</ele>
        <time>2016-07-22T15:02:07Z</time>
      </trkpt>
      <trkpt lat="47.07879" lon="-2.0034">
        <ele>35</ele>
        <time>2016-07-22T15:02:10Z</time>
      </trkpt>
      <trkpt lat="47.0787" lon="-2.00266">
        <ele>34</ele>
        <time>2016-07-22T15:02:19Z</time>
      </trkpt>
      <trkpt lat="47.07866" lon="-2.0024">
        <ele>34</ele>
        <time>2016-07-22T15:02:22Z</time>
      </trkpt>
      <trkpt lat="47.07864" lon="-2.00212">
        <ele>34</ele>
        <time>2016-07-22T15:02:25Z</time>
      </trkpt>
      <trkpt lat="47.07863" lon="-2.00162">
        <ele>31</ele>
        <time>2016-07-22T15:02:30Z</time>
      </trkpt>
      <trkpt lat="47.07864" lon="-2.00119">
        <ele>31</ele>
        <time>2016-07-22T15:02:35Z</time>
      </trkpt>
      <trkpt lat="47.07863" lon="-2.00077">
        <ele>30</ele>
        <time>2016-07-22T15:02:40Z</time>
      </trkpt>
      <trkpt lat="47.0786" lon="-2.00033">
        <ele>30</ele>
        <time>2016-07-22T15:02:45Z</time>
      </trkpt>
      <trkpt lat="47.07855" lon="-1.99992">
        <ele>30</ele>
        <time>2016-07-22T15:02:50Z</time>
      </trkpt>
      <trkpt lat="47.07843" lon="-1.99956">
        <ele>28</ele>
        <time>2016-07-22T15:02:55Z</time>
      </trkpt>
      <trkpt lat="47.07825" lon="-1.99922">
        <ele>27</ele>
        <time>2016-07-22T15:03:00Z</time>
      </trkpt>
      <trkpt lat="47.07807" lon="-1.99889">
        <ele>27</ele>
        <time>2016-07-22T15:03:05Z</time>
      </trkpt>
      <trkpt lat="47.07782" lon="-1.99836">
        <ele>28</ele>
        <time>2016-07-22T15:03:13Z</time>
      </trkpt>
      <trkpt lat="47.07778" lon="-1.99822">
        <ele>30</ele>
        <time>2016-07-22T15:03:15Z</time>
      </trkpt>
      <trkpt lat="47.07765" lon="-1.99787">
        <ele>30</ele>
        <time>2016-07-22T15:03:20Z</time>
      </trkpt>
      <trkpt lat="47.07754" lon="-1.9975">
        <ele>30</ele>
        <time>2016-07-22T15:03:25Z</time>
      </trkpt>
      <trkpt lat="47.07742" lon="-1.99715">
        <ele>32</ele>
        <time>2016-07-22T15:03:30Z</time>
      </trkpt>
      <trkpt lat="47.07729" lon="-1.99678">
        <ele>33</ele>
        <time>2016-07-22T15:03:35Z</time>
      </trkpt>
      <trkpt lat="47.07717" lon="-1.99647">
        <ele>32</ele>
        <time>2016-07-22T15:03:40Z</time>
      </trkpt>
      <trkpt lat="47.07703" lon="-1.99616">
        <ele>32</ele>
        <time>2016-07-22T15:03:45Z</time>
      </trkpt>
      <trkpt lat="47.0769" lon="-1.99584">
        <ele>33</ele>
        <time>2016-07-22T15:03:50Z</time>
      </trkpt>
      <trkpt lat="47.07676" lon="-1.99551">
        <ele>33</ele>
        <time>2016-07-22T15:03:55Z</time>
      </trkpt>
      <trkpt lat="47.07664" lon="-1.9952">
        <ele>32</ele>
        <time>2016-07-22T15:04:00Z</time>
      </trkpt>
      <trkpt lat="47.07652" lon="-1.99491">
        <ele>32</ele>
        <time>2016-07-22T15:04:05Z</time>
      </trkpt>
      <trkpt lat="47.07639" lon="-1.99456">
        <ele>30</ele>
        <time>2016-07-22T15:04:10Z</time>
      </trkpt>
      <trkpt lat="47.07626" lon="-1.9942">
        <ele>30</ele>
        <time>2016-07-22T15:04:15Z</time>
      </trkpt>
      <trkpt lat="47.07615" lon="-1.99382">
        <ele>28</ele>
        <time>2016-07-22T15:04:20Z</time>
      </trkpt>
      <trkpt lat="47.07604" lon="-1.99343">
        <ele>28</ele>
        <time>2016-07-22T15:04:25Z</time>
      </trkpt>
      <trkpt lat="47.07588" lon="-1.99307">
        <ele>27</ele>
        <time>2016-07-22T15:04:30Z</time>
      </trkpt>
      <trkpt lat="47.0757" lon="-1.99288">
        <ele>27</ele>
        <time>2016-07-22T15:04:35Z</time>
      </trkpt>
      <trkpt lat="47.07549" lon="-1.99292">
        <ele>26</ele>
        <time>2016-07-22T15:04:40Z</time>
      </trkpt>
      <trkpt lat="47.0752" lon="-1.99307">
        <ele>26</ele>
        <time>2016-07-22T15:04:46Z</time>
      </trkpt>
      <trkpt lat="47.075" lon="-1.99312">
        <ele>24</ele>
        <time>2016-07-22T15:04:50Z</time>
      </trkpt>
      <trkpt lat="47.07464" lon="-1.99318">
        <ele>28</ele>
        <time>2016-07-22T15:04:57Z</time>
      </trkpt>
      <trkpt lat="47.07442" lon="-1.99318">
        <ele>28</ele>
        <time>2016-07-22T15:05:01Z</time>
      </trkpt>
      <trkpt lat="47.07413" lon="-1.99316">
        <ele>29</ele>
        <time>2016-07-22T15:05:07Z</time>
      </trkpt>
      <trkpt lat="47.07399" lon="-1.99315">
        <ele>30</ele>
        <time>2016-07-22T15:05:10Z</time>
      </trkpt>
      <trkpt lat="47.07373" lon="-1.99309">
        <ele>31</ele>
        <time>2016-07-22T15:05:16Z</time>
      </trkpt>
      <trkpt lat="47.07342" lon="-1.99309">
        <ele>31</ele>
        <time>2016-07-22T15:05:24Z</time>
      </trkpt>
      <trkpt lat="47.07333" lon="-1.99313">
        <ele>31</ele>
        <time>2016-07-22T15:05:29Z</time>
      </trkpt>
      <trkpt lat="47.07331" lon="-1.99313">
        <ele>30</ele>
        <time>2016-07-22T15:05:30Z</time>
      </trkpt>
      <trkpt lat="47.07314" lon="-1.99318">
        <ele>32</ele>
        <time>2016-07-22T15:05:35Z</time>
      </trkpt>
      <trkpt lat="47.07293" lon="-1.99325">
        <ele>32</ele>
        <time>2016-07-22T15:05:40Z</time>
      </trkpt>
      <trkpt lat="47.07274" lon="-1.9933">
        <ele>33</ele>
        <time>2016-07-22T15:05:45Z</time>
      </trkpt>
      <trkpt lat="47.07258" lon="-1.99336">
        <ele>34</ele>
        <time>2016-07-22T15:05:50Z</time>
      </trkpt>
      <trkpt lat="47.07243" lon="-1.99341">
        <ele>35</ele>
        <time>2016-07-22T15:05:55Z</time>
      </trkpt>
      <trkpt lat="47.07229" lon="-1.99348">
        <ele>35</ele>
        <time>2016-07-22T15:06:00Z</time>
      </trkpt>
      <trkpt lat="47.0721" lon="-1.9936">
        <ele>33</ele>
        <time>2016-07-22T15:06:06Z</time>
      </trkpt>
      <trkpt lat="47.0719" lon="-1.99376">
        <ele>33</ele>
        <time>2016-07-22T15:06:12Z</time>
      </trkpt>
      <trkpt lat="47.0718" lon="-1.99385">
        <ele>33</ele>
        <time>2016-07-22T15:06:15Z</time>
      </trkpt>
      <trkpt lat="47.07166" lon="-1.99401">
        <ele>36</ele>
        <time>2016-07-22T15:06:20Z</time>
      </trkpt>
      <trkpt lat="47.07151" lon="-1.99418">
        <ele>36</ele>
        <time>2016-07-22T15:06:25Z</time>
      </trkpt>
      <trkpt lat="47.07131" lon="-1.99434">
        <ele>35</ele>
        <time>2016-07-22T15:06:30Z</time>
      </trkpt>
      <trkpt lat="47.07105" lon="-1.99452">
        <ele>33</ele>
        <time>2016-07-22T15:06:35Z</time>
      </trkpt>
      <trkpt lat="47.07075" lon="-1.9947">
        <ele>30</ele>
        <time>2016-07-22T15:06:40Z</time>
      </trkpt>
      <trkpt lat="47.07041" lon="-1.99491">
        <ele>28</ele>
        <time>2016-07-22T15:06:45Z</time>
      </trkpt>
      <trkpt lat="47.07009" lon="-1.99513">
        <ele>27</ele>
        <time>2016-07-22T15:06:50Z</time>
      </trkpt>
      <trkpt lat="47.0698" lon="-1.99534">
        <ele>28</ele>
        <time>2016-07-22T15:06:55Z</time>
      </trkpt>
      <trkpt lat="47.06951" lon="-1.99553">
        <ele>27</ele>
        <time>2016-07-22T15:07:00Z</time>
      </trkpt>
      <trkpt lat="47.06926" lon="-1.99571">
        <ele>27</ele>
        <time>2016-07-22T15:07:05Z</time>
      </trkpt>
      <trkpt lat="47.06898" lon="-1.99588">
        <ele>27</ele>
        <time>2016-07-22T15:07:10Z</time>
      </trkpt>
      <trkpt lat="47.06859" lon="-1.99615">
        <ele>26</ele>
        <time>2016-07-22T15:07:17Z</time>
      </trkpt>
      <trkpt lat="47.06843" lon="-1.99626">
        <ele>26</ele>
        <time>2016-07-22T15:07:20Z</time>
      </trkpt>
      <trkpt lat="47.06808" lon="-1.9965">
        <ele>26</ele>
        <time>2016-07-22T15:07:26Z</time>
      </trkpt>
      <trkpt lat="47.06786" lon="-1.99665">
        <ele>26</ele>
        <time>2016-07-22T15:07:30Z</time>
      </trkpt>
      <trkpt lat="47.06758" lon="-1.99681">
        <ele>24</ele>
        <time>2016-07-22T15:07:35Z</time>
      </trkpt>
      <trkpt lat="47.06731" lon="-1.99698">
        <ele>23</ele>
        <time>2016-07-22T15:07:40Z</time>
      </trkpt>
      <trkpt lat="47.06704" lon="-1.99712">
        <ele>22</ele>
        <time>2016-07-22T15:07:45Z</time>
      </trkpt>
      <trkpt lat="47.06673" lon="-1.99731">
        <ele>21</ele>
        <time>2016-07-22T15:07:50Z</time>
      </trkpt>
      <trkpt lat="47.0663" lon="-1.99754">
        <ele>18</ele>
        <time>2016-07-22T15:07:56Z</time>
      </trkpt>
      <trkpt lat="47.06605" lon="-1.99766">
        <ele>13</ele>
        <time>2016-07-22T15:08:00Z</time>
      </trkpt>
      <trkpt lat="47.06585" lon="-1.99781">
        <ele>13</ele>
        <time>2016-07-22T15:08:05Z</time>
      </trkpt>
      <trkpt lat="47.06557" lon="-1.99792">
        <ele>11</ele>
        <time>2016-07-22T15:08:10Z</time>
      </trkpt>
      <trkpt lat="47.06529" lon="-1.99803">
        <ele>12</ele>
        <time>2016-07-22T15:08:15Z</time>
      </trkpt>
      <trkpt lat="47.06499" lon="-1.99807">
        <ele>9</ele>
        <time>2016-07-22T15:08:20Z</time>
      </trkpt>
      <trkpt lat="47.06473" lon="-1.99815">
        <ele>9</ele>
        <time>2016-07-22T15:08:25Z</time>
      </trkpt>
      <trkpt lat="47.06458" lon="-1.99817">
        <ele>11</ele>
        <time>2016-07-22T15:08:30Z</time>
      </trkpt>
      <trkpt lat="47.06437" lon="-1.99819">
        <ele>11</ele>
        <time>2016-07-22T15:08:35Z</time>
      </trkpt>
      <trkpt lat="47.06406" lon="-1.99826">
        <ele>11</ele>
        <time>2016-07-22T15:08:41Z</time>
      </trkpt>
      <trkpt lat="47.06389" lon="-1.99833">
        <ele>11</ele>
        <time>2016-07-22T15:08:45Z</time>
      </trkpt>
      <trkpt lat="47.0637" lon="-1.99872">
        <ele>9</ele>
        <time>2016-07-22T15:08:53Z</time>
      </trkpt>
      <trkpt lat="47.06369" lon="-1.99881">
        <ele>10</ele>
        <time>2016-07-22T15:08:55Z</time>
      </trkpt>
      <trkpt lat="47.06358" lon="-1.99885">
        <ele>7</ele>
        <time>2016-07-22T15:09:00Z</time>
      </trkpt>
      <trkpt lat="47.06356" lon="-1.99892">
        <ele>9</ele>
        <time>2016-07-22T15:09:05Z</time>
      </trkpt>
      <trkpt lat="47.06353" lon="-1.99899">
        <ele>10</ele>
        <time>2016-07-22T15:09:13Z</time>
      </trkpt>
      <trkpt lat="47.06348" lon="-1.99907">
        <ele>10</ele>
        <time>2016-07-22T15:09:15Z</time>
      </trkpt>
      <trkpt lat="47.06334" lon="-1.9993">
        <ele>9</ele>
        <time>2016-07-22T15:09:20Z</time>
      </trkpt>
      <trkpt lat="47.06315" lon="-1.9998">
        <ele>10</ele>
        <time>2016-07-22T15:09:29Z</time>
      </trkpt>
      <trkpt lat="47.06312" lon="-1.99987">
        <ele>10</ele>
        <time>2016-07-22T15:09:30Z</time>
      </trkpt>
      <trkpt lat="47.06307" lon="-2.00016">
        <ele>12</ele>
        <time>2016-07-22T15:09:35Z</time>
      </trkpt>
      <trkpt lat="47.06305" lon="-2.0004">
        <ele>8</ele>
        <time>2016-07-22T15:09:42Z</time>
      </trkpt>
      <trkpt lat="47.06308" lon="-2.00062">
        <ele>13</ele>
        <time>2016-07-22T15:09:49Z</time>
      </trkpt>
      <trkpt lat="47.06308" lon="-2.00065">
        <ele>13</ele>
        <time>2016-07-22T15:09:50Z</time>
      </trkpt>
      <trkpt lat="47.06309" lon="-2.00077">
        <ele>15</ele>
        <time>2016-07-22T15:09:55Z</time>
      </trkpt>
      <trkpt lat="47.06307" lon="-2.00094">
        <ele>12</ele>
        <time>2016-07-22T15:10:00Z</time>
      </trkpt>
      <trkpt lat="47.06298" lon="-2.00104">
        <ele>10</ele>
        <time>2016-07-22T15:10:05Z</time>
      </trkpt>
      <trkpt lat="47.06295" lon="-2.00111">
        <ele>12</ele>
        <time>2016-07-22T15:10:10Z</time>
      </trkpt>
      <trkpt lat="47.06288" lon="-2.00116">
        <ele>9</ele>
        <time>2016-07-22T15:10:15Z</time>
      </trkpt>
      <trkpt lat="47.06285" lon="-2.0012">
        <ele>6</ele>
        <time>2016-07-22T15:10:22Z</time>
      </trkpt>
      <trkpt lat="47.06284" lon="-2.00122">
        <ele>6</ele>
        <time>2016-07-22T15:10:28Z</time>
      </trkpt>
      <trkpt lat="47.06283" lon="-2.00121">
        <ele>6</ele>
        <time>2016-07-22T15:10:32Z</time>
      </trkpt>
      <trkpt lat="47.06283" lon="-2.00121">
        <ele>6</ele>
        <time>2016-07-22T15:10:35Z</time>
      </trkpt>
      <trkpt lat="47.06283" lon="-2.00121">
        <ele>6</ele>
        <time>2016-07-22T15:10:40Z</time>
      </trkpt>
      <trkpt lat="47.06283" lon="-2.00121">
        <ele>6</ele>
        <time>2016-07-22T15:10:45Z</time>
      </trkpt>
      <trkpt lat="47.06283" lon="-2.00121">
        <ele>6</ele>
        <time>2016-07-22T15:10:50Z</time>
      </trkpt>
      <trkpt lat="47.06283" lon="-2.00121">
        <ele>6</ele>
        <time>2016-07-22T15:10:55Z</time>
      </trkpt>
      <trkpt lat="47.06283" lon="-2.00121">
        <ele>6</ele>
        <time>2016-07-22T15:11:01Z</time>
      </trkpt>
      <trkpt lat="47.06283" lon="-2.00121">
        <ele>6</ele>
        <time>2016-07-22T15:11:06Z</time>
      </trkpt>
      <trkpt lat="47.06283" lon="-2.00122">
        <ele>7</ele>
        <time>2016-07-22T15:11:10Z</time>
      </trkpt>
      <trkpt lat="47.06288" lon="-2.00127">
        <ele>11</ele>
        <time>2016-07-22T15:11:19Z</time>
      </trkpt>
      <trkpt lat="47.06288" lon="-2.00126">
        <ele>12</ele>
        <time>2016-07-22T15:11:20Z</time>
      </trkpt>
      <trkpt lat="47.06288" lon="-2.00125">
        <ele>12</ele>
        <time>2016-07-22T15:11:25Z</time>
      </trkpt>
      <trkpt lat="47.06288" lon="-2.00125">
        <ele>12</ele>
        <time>2016-07-22T15:11:30Z</time>
      </trkpt>
      <trkpt lat="47.06288" lon="-2.00125">
        <ele>12</ele>
        <time>2016-07-22T15:11:35Z</time>
      </trkpt>
      <trkpt lat="47.06287" lon="-2.00125">
        <ele>12</ele>
        <time>2016-07-22T15:11:53Z</time>
      </trkpt>
      <trkpt lat="47.06287" lon="-2.00125">
        <ele>12</ele>
        <time>2016-07-22T15:11:58Z</time>
      </trkpt>
      <trkpt lat="47.06287" lon="-2.00125">
        <ele>12</ele>
        <time>2016-07-22T15:12:00Z</time>
      </trkpt>
      <trkpt lat="47.06287" lon="-2.00125">
        <ele>12</ele>
        <time>2016-07-22T15:12:09Z</time>
      </trkpt>
      <trkpt lat="47.06287" lon="-2.00125">
        <ele>12</ele>
        <time>2016-07-22T15:12:13Z</time>
      </trkpt>
      <trkpt lat="47.06287" lon="-2.00125">
        <ele>12</ele>
        <time>2016-07-22T15:12:15Z</time>
      </trkpt>
      <trkpt lat="47.06287" lon="-2.00125">
        <ele>11</ele>
        <time>2016-07-22T15:12:22Z</time>
      </trkpt>
      <trkpt lat="47.06287" lon="-2.00125">
        <ele>11</ele>
        <time>2016-07-22T15:12:25Z</time>
      </trkpt>
      <trkpt lat="47.06287" lon="-2.00125">
        <ele>11</ele>
        <time>2016-07-22T15:13:34Z</time>
      </trkpt>
      <trkpt lat="47.06284" lon="-2.00126">
        <ele>6</ele>
        <time>2016-07-22T15:13:39Z</time>
      </trkpt>
      <trkpt lat="47.06284" lon="-2.00129">
        <ele>2</ele>
        <time>2016-07-22T15:13:41Z</time>
      </trkpt>
      <trkpt lat="47.06285" lon="-2.00129">
        <ele>4.5</ele>
        <time>2016-07-22T15:13:48Z</time>
      </trkpt>
      <trkpt lat="47.06286" lon="-2.00127">
        <ele>-1</ele>
        <time>2016-07-22T15:13:50Z</time>
      </trkpt>
      <trkpt lat="47.06285" lon="-2.00126">
        <ele>-1</ele>
        <time>2016-07-22T15:13:55Z</time>
      </trkpt>
      <trkpt lat="47.06284" lon="-2.00126">
        <ele>4.6</ele>
        <time>2016-07-22T15:14:00Z</time>
      </trkpt>
      <trkpt lat="47.06284" lon="-2.00125">
        <ele>4.6</ele>
        <time>2016-07-22T15:14:05Z</time>
      </trkpt>
      <trkpt lat="47.06284" lon="-2.00125">
        <ele>-1</ele>
        <time>2016-07-22T15:14:14Z</time>
      </trkpt>
    </trkseg>
  </trk>
</gpx>